Time;durP1;ratioP1;P1;durP2;ratioP2;P2;SDS_P1;SDS_P2;PMS_P1;PMS_P2;Temp;Humidity;BMP_temperature;BMP_pressure;BME280_temperature;BME280_humidity;BME280_pressure;Samples;Min_cycle;Max_cycle;Signal;HPM_P1;HPM_P2
2022/12/26 00:01:40;;;;;;;53.53;20.83;;;8.50;99.90;;;;;;5138912;27;20082;-59
2022/12/26 00:04:06;;;;;;;56.42;21.42;;;8.50;99.90;;;;;;5139715;27;20035;-58
2022/12/26 00:06:32;;;;;;;58.92;21.40;;;8.40;99.90;;;;;;5138924;27;20491;-57
2022/12/26 00:08:59;;;;;;;59.65;21.50;;;8.50;99.90;;;;;;5139207;27;20043;-59
2022/12/26 00:11:25;;;;;;;55.25;21.73;;;7.90;99.90;;;;;;5121100;27;20050;-58
2022/12/26 00:13:58;;;;;;;56.17;21.00;;;8.40;99.90;;;;;;5138659;27;20046;-59
2022/12/26 00:16:25;;;;;;;54.75;21.75;;;7.90;99.90;;;;;;5139405;27;20053;-58
2022/12/26 00:18:52;;;;;;;56.38;21.17;;;8.10;99.90;;;;;;5138774;27;20031;-59
2022/12/26 00:21:18;;;;;;;64.05;21.90;;;8.50;99.90;;;;;;5139644;27;20086;-59
2022/12/26 00:23:45;;;;;;;55.13;20.88;;;7.90;99.90;;;;;;5138931;27;20039;-59
2022/12/26 00:26:14;;;;;;;63.25;20.77;;;8.40;99.90;;;;;;5138973;27;20045;-59
2022/12/26 00:28:39;;;;;;;61.55;21.05;;;7.90;99.90;;;;;;5139337;27;20054;-59
2022/12/26 00:31:08;;;;;;;58.67;20.60;;;8.50;99.90;;;;;;5138489;27;20043;-58
2022/12/26 00:33:34;;;;;;;56.20;20.63;;;8.30;99.90;;;;;;5139174;27;20047;-58
2022/12/26 00:36:06;;;;;;;56.65;18.52;;;8.00;99.90;;;;;;5138591;27;20147;-58
2022/12/26 00:38:34;;;;;;;56.60;19.38;;;8.00;99.90;;;;;;5120297;28;20050;-58
2022/12/26 00:41:00;;;;;;;58.08;19.65;;;8.40;99.90;;;;;;5120201;27;20050;-58
2022/12/26 00:43:25;;;;;;;53.70;18.70;;;8.60;99.90;;;;;;5119783;28;20082;-58
2022/12/26 00:45:51;;;;;;;58.42;19.23;;;7.90;99.90;;;;;;5120603;28;20042;-58
2022/12/26 00:48:17;;;;;;;54.15;19.67;;;8.50;99.90;;;;;;5119621;28;20282;-58
2022/12/26 00:50:42;;;;;;;62.33;18.88;;;8.60;99.90;;;;;;5140221;27;20047;-58
2022/12/26 00:53:08;;;;;;;80.68;21.85;;;8.00;99.90;;;;;;5142277;27;20049;-58
2022/12/26 00:55:34;;;;;;;76.10;22.42;;;8.00;99.90;;;;;;5143095;27;20039;-58
2022/12/26 00:57:59;;;;;;;64.68;21.15;;;8.60;99.90;;;;;;5142943;27;20035;-57
2022/12/26 01:00:25;;;;;;;79.20;22.38;;;7.90;99.90;;;;;;5124346;27;20047;-58
2022/12/26 01:02:51;;;;;;;78.65;22.08;;;7.90;99.90;;;;;;5130050;27;20038;-58
2022/12/26 01:05:17;;;;;;;81.53;23.27;;;8.50;99.90;;;;;;5162964;27;20047;-58
2022/12/26 01:07:42;;;;;;;71.00;22.08;;;8.50;99.90;;;;;;5163626;27;20043;-57
2022/12/26 01:10:11;;;;;;;72.90;22.30;;;7.90;99.90;;;;;;5163264;27;20038;-58
2022/12/26 01:12:36;;;;;;;81.65;22.33;;;8.60;99.90;;;;;;5163288;27;20086;-57
2022/12/26 01:15:03;;;;;;;89.03;22.85;;;8.50;99.90;;;;;;5163215;27;20058;-58
2022/12/26 01:17:29;;;;;;;84.88;24.27;;;8.20;99.90;;;;;;5163292;27;20042;-58
2022/12/26 01:19:55;;;;;;;72.03;22.55;;;8.20;99.90;;;;;;5163805;27;20042;-57
2022/12/26 01:22:21;;;;;;;74.80;21.83;;;8.40;99.90;;;;;;5162653;27;20055;-59
2022/12/26 01:24:47;;;;;;;72.28;22.58;;;8.60;99.90;;;;;;5163313;27;20042;-58
2022/12/26 01:27:13;;;;;;;75.45;22.77;;;8.00;99.90;;;;;;5162873;27;20054;-58
2022/12/26 01:29:39;;;;;;;76.82;22.55;;;8.00;99.90;;;;;;5163387;27;20034;-58
2022/12/26 01:32:05;;;;;;;63.22;20.17;;;8.10;99.90;;;;;;5163217;27;20485;-58
2022/12/26 01:34:31;;;;;;;73.25;22.13;;;8.00;99.90;;;;;;5162725;27;20458;-58
2022/12/26 01:36:56;;;;;;;73.82;21.95;;;8.10;99.90;;;;;;5163233;27;20039;-58
2022/12/26 01:39:22;;;;;;;75.85;23.48;;;7.90;99.90;;;;;;5162777;27;20070;-58
2022/12/26 01:41:48;;;;;;;67.40;22.05;;;8.60;99.90;;;;;;5163008;27;20042;-58
2022/12/26 01:44:51;;;;;;;64.15;20.98;;;8.60;99.90;;;;;;5162261;27;20046;-58
2022/12/26 01:47:19;;;;;;;66.32;21.90;;;8.20;99.90;;;;;;5162787;27;20050;-58
2022/12/26 01:49:49;;;;;;;64.57;21.02;;;8.40;99.90;;;;;;5162631;27;20102;-58
2022/12/26 01:52:28;;;;;;;67.43;21.42;;;8.10;99.90;;;;;;5162385;27;20039;-59
2022/12/26 01:54:54;;;;;;;64.03;21.73;;;8.50;99.90;;;;;;5158957;27;20090;-58
2022/12/26 01:57:31;;;;;;;67.95;21.92;;;8.50;99.90;;;;;;5141640;27;20069;-59
2022/12/26 01:59:58;;;;;;;66.07;20.88;;;8.00;99.90;;;;;;5142158;27;20050;-59
2022/12/26 02:02:27;;;;;;;63.83;21.13;;;8.60;99.90;;;;;;5141578;27;20043;-59
2022/12/26 02:07:42;;;;;;;57.95;18.88;;;8.60;99.90;;;;;;5141886;27;20103;-59
2022/12/26 02:10:14;;;;;;;54.10;18.33;;;8.40;99.90;;;;;;5122267;27;20046;-60
2022/12/26 02:12:40;;;;;;;52.13;17.88;;;8.10;99.90;;;;;;5141745;27;20043;-60
2022/12/26 02:15:10;;;;;;;58.72;18.52;;;8.20;99.90;;;;;;5141089;27;20545;-60
2022/12/26 02:17:37;;;;;;;52.55;18.58;;;8.50;99.90;;;;;;5141421;27;20040;-60
2022/12/26 02:20:09;;;;;;;60.20;20.40;;;8.20;99.90;;;;;;5141813;27;20049;-60
2022/12/26 02:22:55;;;;;;;63.30;19.05;;;8.30;99.90;;;;;;5140753;27;20068;-60
2022/12/26 02:25:40;;;;;;;59.38;18.83;;;7.90;99.90;;;;;;5141740;27;20054;-60
2022/12/26 02:28:43;;;;;;;55.50;18.15;;;7.90;99.90;;;;;;5141300;27;20039;-59
2022/12/26 02:31:23;;;;;;;46.28;17.15;;;8.00;99.90;;;;;;5140703;27;20084;-60
2022/12/26 02:33:52;;;;;;;54.55;16.73;;;8.60;99.90;;;;;;5141593;27;20359;-60
2022/12/26 02:36:54;;;;;;;50.03;17.33;;;8.00;99.90;;;;;;5140854;27;20160;-61
2022/12/26 02:39:31;;;;;;;53.30;16.70;;;8.00;99.90;;;;;;5140538;27;20070;-62
2022/12/26 02:42:22;;;;;;;50.03;18.90;;;7.90;99.90;;;;;;5141081;27;20285;-63
2022/12/26 02:48:16;;;;;;;58.15;16.95;;;8.20;99.90;;;;;;5140531;27;20082;-62
2022/12/26 03:14:59;;;;;;;40.92;17.88;;;8.00;99.90;;;;;;5139359;27;20466;-62
2022/12/26 03:17:31;;;;;;;42.53;18.63;;;8.60;99.90;;;;;;5121986;27;20130;-60
2022/12/26 03:20:14;;;;;;;45.63;19.98;;;8.40;99.90;;;;;;5140613;27;20039;-61
2022/12/26 03:22:48;;;;;;;46.65;21.85;;;8.70;99.90;;;;;;5139776;27;20051;-59
2022/12/26 03:28:23;;;;;;;47.00;20.67;;;8.60;99.90;;;;;;5140250;27;20054;-59
2022/12/26 03:30:50;;;;;;;50.67;22.92;;;8.70;99.90;;;;;;5120934;27;20057;-60
2022/12/26 03:36:16;;;;;;;52.67;24.25;;;8.10;99.90;;;;;;5139389;27;20565;-59
2022/12/26 03:39:06;;;;;;;52.60;25.02;;;8.10;99.90;;;;;;5139911;27;20039;-59
2022/12/26 04:20:08;;;;;;;52.60;24.23;;;9.00;99.90;;;;;;5160471;27;20086;-58
2022/12/26 04:45:27;;;;;;;54.25;23.50;;;8.20;99.90;;;;;;5159897;27;20122;-58
2022/12/26 04:50:51;;;;;;;45.10;22.40;;;9.00;99.90;;;;;;5160012;27;20053;-57
2022/12/26 04:53:18;;;;;;;52.22;24.42;;;8.90;99.90;;;;;;5159339;27;20034;-58
2022/12/26 04:55:44;;;;;;;54.80;25.35;;;9.20;99.90;;;;;;5148461;27;20041;-58
2022/12/26 04:58:11;;;;;;;46.90;24.27;;;8.30;99.90;;;;;;5138838;28;20130;-57
2022/12/26 05:00:36;;;;;;;46.42;24.10;;;8.40;99.90;;;;;;5138246;28;20087;-58
2022/12/26 05:11:28;;;;;;;47.73;24.93;;;8.80;99.90;;;;;;5138978;28;20139;-58
2022/12/26 05:13:55;;;;;;;44.20;22.65;;;8.80;99.90;;;;;;5137961;28;20119;-58
2022/12/26 05:30:09;;;;;;;41.10;21.63;;;8.50;99.90;;;;;;5138356;28;20059;-57
2022/12/26 05:35:19;;;;;;;36.03;19.65;;;8.30;99.90;;;;;;5137955;28;20051;-58
2022/12/26 05:37:45;;;;;;;39.97;21.90;;;8.40;99.90;;;;;;5141416;27;20043;-58
2022/12/26 05:40:11;;;;;;;40.20;21.40;;;8.50;99.90;;;;;;5123226;27;20818;-58
2022/12/26 05:42:36;;;;;;;38.85;22.60;;;8.30;99.90;;;;;;5142049;27;20079;-58
2022/12/26 05:45:02;;;;;;;41.35;23.67;;;8.40;99.90;;;;;;5141998;27;20039;-58
2022/12/26 05:47:28;;;;;;;38.13;21.73;;;8.30;99.90;;;;;;5142057;27;20050;-58
2022/12/26 05:49:53;;;;;;;36.97;21.17;;;8.30;99.90;;;;;;5142323;27;20043;-58
2022/12/26 05:52:19;;;;;;;35.70;21.42;;;8.30;99.90;;;;;;5141550;27;20047;-58
2022/12/26 05:54:45;;;;;;;36.20;21.80;;;8.70;99.90;;;;;;5126248;27;20053;-58
2022/12/26 05:57:10;;;;;;;39.40;22.38;;;8.60;99.90;;;;;;5161986;27;20050;-58
2022/12/26 05:59:36;;;;;;;40.30;23.50;;;8.60;99.90;;;;;;5162634;27;20035;-58
2022/12/26 06:02:02;;;;;;;36.22;22.77;;;8.40;99.90;;;;;;5162573;27;20091;-58
2022/12/26 06:04:28;;;;;;;39.08;23.63;;;8.30;99.90;;;;;;5162504;27;20088;-58
2022/12/26 06:06:55;;;;;;;42.83;24.65;;;8.80;99.90;;;;;;5144123;27;20045;-57
2022/12/26 06:09:23;;;;;;;38.92;23.75;;;8.40;99.90;;;;;;5161963;27;20045;-58
2022/12/26 06:11:49;;;;;;;39.05;23.92;;;8.40;99.90;;;;;;5162238;27;20046;-58
2022/12/26 06:14:15;;;;;;;36.38;22.55;;;8.30;99.90;;;;;;5157461;27;20095;-58
2022/12/26 06:16:41;;;;;;;38.05;23.85;;;8.60;99.90;;;;;;5158645;27;20381;-57
2022/12/26 06:19:07;;;;;;;36.85;21.88;;;8.30;99.90;;;;;;5157959;27;20045;-58
2022/12/26 06:21:33;;;;;;;38.47;22.58;;;8.80;99.90;;;;;;5158120;27;20059;-58
2022/12/26 06:23:59;;;;;;;34.42;22.50;;;8.80;99.90;;;;;;5158329;27;20070;-57
2022/12/26 06:26:25;;;;;;;38.33;23.30;;;8.40;99.90;;;;;;5130263;27;20398;-57
2022/12/26 06:28:50;;;;;;;36.42;23.20;;;8.50;99.90;;;;;;5137118;27;20073;-58
2022/12/26 06:31:19;;;;;;;33.92;22.83;;;8.40;99.90;;;;;;5118278;27;20111;-58
2022/12/26 06:33:46;;;;;;;36.75;21.92;;;8.70;99.90;;;;;;5137356;27;20066;-57
2022/12/26 06:36:15;;;;;;;37.13;23.73;;;8.80;99.90;;;;;;5136817;27;20039;-58
2022/12/26 06:38:42;;;;;;;32.05;22.38;;;8.40;99.90;;;;;;5136766;27;20175;-58
2022/12/26 06:41:10;;;;;;;34.30;20.10;;;8.40;99.90;;;;;;5137389;27;20505;-57
2022/12/26 06:43:36;;;;;;;32.60;21.65;;;8.60;99.90;;;;;;5117977;27;20055;-57
2022/12/26 06:46:03;;;;;;;32.40;20.52;;;8.80;99.90;;;;;;5137365;27;20055;-58
2022/12/26 06:48:29;;;;;;;33.97;21.60;;;8.80;99.90;;;;;;5135156;27;20043;-54
2022/12/26 06:50:55;;;;;;;32.08;20.00;;;8.40;99.90;;;;;;5118473;27;20075;-57
2022/12/26 06:53:24;;;;;;;30.30;19.98;;;8.40;99.90;;;;;;5120122;27;20062;-58
2022/12/26 06:55:51;;;;;;;29.70;19.73;;;8.50;99.90;;;;;;5145467;27;20042;-58
2022/12/26 06:58:17;;;;;;;28.55;19.90;;;8.80;99.90;;;;;;5146939;27;20043;-57
2022/12/26 07:00:43;;;;;;;29.38;18.90;;;8.60;99.90;;;;;;5128039;27;20045;-58
2022/12/26 07:03:09;;;;;;;26.83;18.55;;;8.60;99.90;;;;;;5117659;27;20139;-57
2022/12/26 07:05:36;;;;;;;31.88;19.90;;;8.80;99.90;;;;;;5136433;27;20382;-57
2022/12/26 07:08:02;;;;;;;26.45;16.15;;;8.70;99.90;;;;;;5136709;27;20078;-58
2022/12/26 07:10:28;;;;;;;27.35;17.27;;;8.80;99.90;;;;;;5135844;27;20039;-58
2022/12/26 07:12:53;;;;;;;27.52;17.33;;;8.80;99.90;;;;;;5136080;27;20076;-62
2022/12/26 07:15:19;;;;;;;27.02;16.08;;;9.00;99.90;;;;;;5136328;27;20039;-58
2022/12/26 07:17:46;;;;;;;25.92;17.20;;;8.90;99.90;;;;;;5136240;27;20084;-58
2022/12/26 07:20:12;;;;;;;34.28;16.05;;;9.00;99.90;;;;;;5136590;27;20047;-57
2022/12/26 07:22:37;;;;;;;23.65;15.95;;;8.60;99.90;;;;;;5135482;27;20074;-58
2022/12/26 07:25:04;;;;;;;23.77;15.82;;;8.80;99.90;;;;;;5117777;27;20067;-58
2022/12/26 07:27:29;;;;;;;21.70;13.18;;;9.00;99.90;;;;;;5135796;27;20302;-57
2022/12/26 07:29:55;;;;;;;25.88;13.52;;;8.70;99.90;;;;;;5136297;27;20043;-58
2022/12/26 07:32:20;;;;;;;22.08;11.35;;;8.60;99.90;;;;;;5136346;27;20126;-57
2022/12/26 07:34:46;;;;;;;18.42;10.40;;;8.60;99.90;;;;;;5135724;27;20055;-57
2022/12/26 07:37:12;;;;;;;19.85;10.60;;;8.50;99.90;;;;;;5135729;27;20065;-56
2022/12/26 07:39:37;;;;;;;16.70;9.43;;;8.50;99.90;;;;;;5135177;27;20327;-57
2022/12/26 07:42:03;;;;;;;14.68;7.50;;;8.40;99.90;;;;;;5136361;27;20043;-57
2022/12/26 07:44:31;;;;;;;18.10;8.30;;;8.50;99.90;;;;;;5135227;27;20099;-57
2022/12/26 07:46:57;;;;;;;17.88;9.20;;;8.40;99.90;;;;;;5136068;27;20039;-57
2022/12/26 07:49:24;;;;;;;17.63;7.90;;;8.70;99.90;;;;;;5135348;27;20571;-57
2022/12/26 07:51:49;;;;;;;17.83;8.45;;;8.40;99.90;;;;;;5135012;27;20053;-57
2022/12/26 07:54:15;;;;;;;18.48;8.90;;;8.60;99.90;;;;;;5136063;27;20118;-58
2022/12/26 07:56:41;;;;;;;15.23;8.50;;;8.20;99.90;;;;;;5135086;27;20081;-58
2022/12/26 07:59:12;;;;;;;16.63;8.32;;;8.70;99.90;;;;;;5135266;27;20067;-57
2022/12/26 08:01:38;;;;;;;15.05;7.20;;;8.40;99.90;;;;;;5133730;27;20039;-58
2022/12/26 08:04:04;;;;;;;14.93;7.97;;;8.30;99.90;;;;;;5116736;27;20035;-57
2022/12/26 08:06:29;;;;;;;15.77;8.02;;;8.50;99.90;;;;;;5135033;27;20047;-57
2022/12/26 08:08:55;;;;;;;13.73;7.78;;;8.70;99.90;;;;;;5116421;27;20054;-57
2022/12/26 08:11:23;;;;;;;16.52;9.80;;;8.70;99.90;;;;;;5135863;27;20043;-57
2022/12/26 08:13:49;;;;;;;22.88;8.43;;;8.50;99.90;;;;;;5133974;27;20035;-57
2022/12/26 08:16:15;;;;;;;15.30;8.25;;;8.50;99.90;;;;;;5135464;27;20058;-57
2022/12/26 08:18:41;;;;;;;12.45;8.00;;;8.80;99.90;;;;;;5135003;27;20510;-57
2022/12/26 08:21:07;;;;;;;14.15;7.93;;;8.60;99.90;;;;;;5100118;27;20518;-56
2022/12/26 08:23:33;;;;;;;14.95;7.90;;;8.50;99.90;;;;;;5135130;27;20078;-57
2022/12/26 08:26:04;;;;;;;13.93;8.38;;;8.60;99.90;;;;;;5134322;27;20039;-57
2022/12/26 08:28:29;;;;;;;19.33;8.63;;;8.80;99.90;;;;;;5117044;27;20054;-57
2022/12/26 08:30:55;;;;;;;18.13;8.82;;;8.70;99.90;;;;;;5134368;27;20122;-57
2022/12/26 08:33:21;;;;;;;15.73;7.78;;;8.80;99.90;;;;;;5116818;27;20046;-58
2022/12/26 08:35:46;;;;;;;17.40;8.48;;;8.80;99.90;;;;;;5134359;27;20077;-58
2022/12/26 08:38:12;;;;;;;15.18;7.88;;;8.90;99.90;;;;;;5134849;27;20111;-57
2022/12/26 08:40:38;;;;;;;18.13;8.05;;;8.90;99.90;;;;;;5134637;27;20049;-58
2022/12/26 08:43:03;;;;;;;13.93;7.07;;;9.00;99.90;;;;;;5116040;28;20092;-58
2022/12/26 08:45:29;;;;;;;12.65;7.18;;;8.90;99.90;;;;;;5135408;27;20043;-57
2022/12/26 08:47:55;;;;;;;14.05;7.03;;;9.00;99.90;;;;;;5115827;28;20055;-58
2022/12/26 08:50:20;;;;;;;13.68;7.28;;;8.70;99.90;;;;;;5134641;28;20051;-57
2022/12/26 08:52:46;;;;;;;15.43;7.65;;;8.90;99.90;;;;;;5134490;28;20061;-57
2022/12/26 08:55:12;;;;;;;15.70;7.13;;;8.90;99.90;;;;;;5135093;28;20039;-58
2022/12/26 08:57:38;;;;;;;12.88;7.15;;;8.80;99.90;;;;;;5134529;28;20047;-58
2022/12/26 09:00:04;;;;;;;12.77;8.25;;;8.90;99.90;;;;;;5134485;28;20111;-57
2022/12/26 09:02:30;;;;;;;14.23;7.68;;;8.70;99.90;;;;;;5123155;27;20035;-57
2022/12/26 09:04:56;;;;;;;14.73;7.80;;;8.70;99.90;;;;;;5154892;27;20064;-57
2022/12/26 09:07:21;;;;;;;17.73;8.02;;;8.90;99.90;;;;;;5137039;27;20049;-58
2022/12/26 09:09:47;;;;;;;17.20;8.38;;;9.10;99.90;;;;;;5154925;27;20055;-58
2022/12/26 09:12:13;;;;;;;16.48;8.30;;;9.10;99.90;;;;;;5157396;27;20054;-57
2022/12/26 09:14:39;;;;;;;15.13;8.40;;;8.90;99.90;;;;;;5158485;27;20086;-58
2022/12/26 09:17:04;;;;;;;18.08;9.48;;;9.00;99.90;;;;;;5159345;27;20051;-58
2022/12/26 09:19:31;;;;;;;13.80;6.82;;;8.80;99.90;;;;;;5159745;27;20039;-57
2022/12/26 09:24:41;;;;;;;12.52;6.75;;;9.00;99.90;;;;;;5159695;27;20049;-58
2022/12/26 09:27:07;;;;;;;12.07;6.80;;;9.00;99.90;;;;;;5158956;27;20125;-58
2022/12/26 09:29:33;;;;;;;10.93;6.20;;;9.00;99.90;;;;;;5159222;27;20042;-58
2022/12/26 09:31:58;;;;;;;13.82;5.78;;;9.10;99.90;;;;;;5147450;27;20507;-57
2022/12/26 09:34:24;;;;;;;13.50;5.80;;;8.70;99.90;;;;;;5138549;27;20040;-58
2022/12/26 09:36:50;;;;;;;10.15;4.70;;;8.80;99.90;;;;;;5138150;27;20051;-57
2022/12/26 09:39:15;;;;;;;12.88;5.38;;;8.80;99.90;;;;;;5137987;27;20067;-57
2022/12/26 09:42:02;;;;;;;16.77;5.40;;;8.80;99.90;;;;;;5138422;27;20112;-58
2022/12/26 09:44:46;;;;;;;12.43;4.22;;;8.60;99.90;;;;;;5119344;27;20046;-57
2022/12/26 09:47:32;;;;;;;13.68;2.40;;;8.60;99.90;;;;;;5138141;27;20113;-58
2022/12/26 09:50:12;;;;;;;20.60;4.40;;;8.30;99.90;;;;;;5138176;27;20054;-57
2022/12/26 09:52:48;;;;;;;11.82;2.50;;;8.00;99.90;;;;;;5137407;27;20108;-58
2022/12/26 09:55:28;;;;;;;11.93;2.40;;;8.00;99.90;;;;;;5138047;27;20039;-58
2022/12/26 09:57:58;;;;;;;12.35;2.30;;;7.80;99.90;;;;;;5137847;27;20058;-58
2022/12/26 10:00:28;;;;;;;15.68;3.47;;;7.80;99.90;;;;;;5118612;27;20047;-58
2022/12/26 10:02:57;;;;;;;14.68;2.85;;;7.70;99.90;;;;;;5137763;27;20107;-58
2022/12/26 10:05:31;;;;;;;14.43;2.58;;;7.60;99.90;;;;;;5137060;27;20059;-55
2022/12/26 10:08:12;;;;;;;8.40;1.95;;;7.60;99.90;;;;;;5137932;27;20116;-56
2022/12/26 10:10:48;;;;;;;12.65;2.40;;;7.50;99.90;;;;;;5118191;27;20043;-57
2022/12/26 10:13:30;;;;;;;12.23;2.63;;;7.60;99.90;;;;;;5135964;27;20039;-57
2022/12/26 10:16:15;;;;;;;14.15;2.45;;;7.50;99.90;;;;;;5137594;27;20103;-58
2022/12/26 10:19:02;;;;;;;10.90;1.95;;;7.50;99.90;;;;;;5137223;27;20519;-57
2022/12/26 10:21:53;;;;;;;13.75;2.00;;;7.50;99.90;;;;;;5137363;27;20047;-56
2022/12/26 10:24:22;;;;;;;14.43;2.40;;;7.50;99.90;;;;;;5137033;27;20047;-58
2022/12/26 10:26:51;;;;;;;16.52;3.20;;;7.70;99.90;;;;;;5139181;27;20053;-57
2022/12/26 10:29:24;;;;;;;15.23;2.83;;;7.70;99.90;;;;;;5157766;27;20053;-58
2022/12/26 10:32:01;;;;;;;10.63;1.85;;;7.60;99.90;;;;;;5156816;27;20039;-57
2022/12/26 10:34:39;;;;;;;11.93;2.50;;;7.50;99.90;;;;;;5157621;27;20089;-58
2022/12/26 10:37:17;;;;;;;12.40;1.80;;;7.50;99.90;;;;;;5157884;27;20103;-57
2022/12/26 10:39:58;;;;;;;13.48;2.00;;;7.40;99.90;;;;;;5157159;27;20445;-58
2022/12/26 10:42:38;;;;;;;12.32;1.55;;;7.10;99.90;;;;;;5157294;27;20077;-58
2022/12/26 10:45:38;;;;;;;7.43;1.15;;;7.00;99.90;;;;;;5157829;27;20047;-58
2022/12/26 10:48:04;;;;;;;8.70;1.48;;;7.10;99.90;;;;;;5156899;27;20039;-58
2022/12/26 10:50:33;;;;;;;10.57;2.25;;;6.80;99.90;;;;;;5157596;27;20100;-58
2022/12/26 10:53:02;;;;;;;6.88;1.40;;;6.90;99.90;;;;;;5156801;27;20042;-59
2022/12/26 10:55:32;;;;;;;9.77;2.20;;;6.80;99.90;;;;;;5148848;27;20454;-58
2022/12/26 10:58:33;;;;;;;9.25;1.85;;;6.50;99.90;;;;;;5136418;27;20112;-58
2022/12/26 11:01:36;;;;;;;6.07;1.67;;;6.70;99.90;;;;;;5141912;27;20035;-56
2022/12/26 11:04:23;;;;;;;11.88;1.30;;;6.70;99.90;;;;;;5137327;27;20099;-57
2022/12/26 11:06:53;;;;;;;5.97;1.20;;;6.80;99.90;;;;;;5136736;27;20064;-56
2022/12/26 11:09:44;;;;;;;8.73;2.55;;;6.60;99.90;;;;;;5100594;27;20100;-57
2022/12/26 11:12:33;;;;;;;4.50;0.90;;;6.70;99.90;;;;;;5117982;27;20054;-57
2022/12/26 11:15:03;;;;;;;8.07;1.63;;;6.80;99.90;;;;;;5119987;27;20055;-57
2022/12/26 11:17:32;;;;;;;6.72;1.25;;;6.70;99.90;;;;;;5136070;27;20035;-57
2022/12/26 11:20:29;;;;;;;7.70;1.25;;;6.80;99.90;;;;;;5133799;27;20346;-57
2022/12/26 11:23:31;;;;;;;5.60;1.52;;;6.90;99.90;;;;;;5116912;27;20110;-57
2022/12/26 11:25:59;;;;;;;5.75;0.98;;;6.80;99.90;;;;;;5156048;27;20072;-57
2022/12/26 11:28:31;;;;;;;7.18;1.40;;;6.80;99.90;;;;;;5157159;27;20070;-57
2022/12/26 11:31:00;;;;;;;5.05;1.02;;;6.90;99.90;;;;;;5137336;27;20043;-58
2022/12/26 11:33:30;;;;;;;6.60;1.85;;;6.90;99.90;;;;;;5139083;27;20035;-57
2022/12/26 11:36:04;;;;;;;8.85;1.75;;;6.80;99.90;;;;;;5135290;27;20040;-58
2022/12/26 11:38:35;;;;;;;11.50;1.52;;;6.70;99.90;;;;;;5135428;27;20072;-57
2022/12/26 11:43:54;;;;;;;7.07;1.30;;;6.80;99.90;;;;;;5135300;27;20070;-57
2022/12/26 11:46:30;;;;;;;11.75;1.60;;;6.80;99.90;;;;;;5117143;27;20081;-57
2022/12/26 11:48:55;;;;;;;13.18;1.65;;;6.90;99.90;;;;;;5115887;27;20047;-57
2022/12/26 11:51:44;;;;;;;6.93;1.38;;;7.00;99.90;;;;;;5117162;27;20520;-56
2022/12/26 11:54:25;;;;;;;6.28;2.15;;;6.90;99.90;;;;;;5136032;27;20049;-57
2022/12/26 11:57:26;;;;;;;11.95;1.38;;;7.00;99.90;;;;;;5132864;27;20043;-57
2022/12/26 11:59:52;;;;;;;5.60;2.17;;;6.90;99.90;;;;;;5110972;27;20063;-57
2022/12/26 12:02:31;;;;;;;6.47;1.40;;;7.00;99.90;;;;;;5135030;27;20043;-56
2022/12/26 12:05:01;;;;;;;8.82;1.23;;;7.00;99.90;;;;;;5134864;27;20508;-58
2022/12/26 12:07:58;;;;;;;7.53;1.50;;;7.00;99.90;;;;;;5117229;27;20050;-57
2022/12/26 12:11:01;;;;;;;7.90;1.27;;;7.00;99.90;;;;;;5135294;27;20086;-57
2022/12/26 12:14:00;;;;;;;8.93;2.08;;;7.00;99.90;;;;;;5134268;27;20081;-57
2022/12/26 12:16:41;;;;;;;9.75;1.50;;;7.00;99.90;;;;;;5091600;27;20051;-58
2022/12/26 12:19:25;;;;;;;17.40;2.33;;;7.00;99.90;;;;;;5116467;27;20056;-56
2022/12/26 12:22:22;;;;;;;10.25;2.35;;;7.00;99.90;;;;;;5135257;27;20269;-57
2022/12/26 12:25:24;;;;;;;7.55;2.03;;;7.10;99.90;;;;;;5134854;27;20107;-56
2022/12/26 12:27:58;;;;;;;;;;;7.30;99.90;;;;;;5102656;27;20059;-58
2022/12/26 12:30:40;;;;;;;10.35;2.08;;;7.30;99.90;;;;;;5134839;27;19924;-58
2022/12/26 12:33:29;;;;;;;15.25;1.63;;;7.30;99.90;;;;;;5135031;27;20081;-58
2022/12/26 12:36:18;;;;;;;10.20;2.20;;;7.20;99.90;;;;;;5134451;27;20050;-56
2022/12/26 12:39:10;;;;;;;7.93;1.65;;;7.20;99.90;;;;;;5134365;27;20062;-58
2022/12/26 12:42:00;;;;;;;11.20;1.93;;;7.20;99.90;;;;;;5131887;27;20059;-56
2022/12/26 12:44:38;;;;;;;7.88;1.70;;;7.10;99.90;;;;;;5134566;27;20305;-57
2022/12/26 12:47:31;;;;;;;12.40;1.65;;;7.00;99.90;;;;;;5134087;27;20039;-58
2022/12/26 12:50:30;;;;;;;15.05;2.17;;;7.10;99.90;;;;;;5134773;28;20839;-58
2022/12/26 12:53:02;;;;;;;13.90;2.25;;;7.10;99.90;;;;;;5134147;28;20074;-57
2022/12/26 12:55:42;;;;;;;7.43;1.95;;;7.00;99.90;;;;;;5134714;28;20047;-57
2022/12/26 12:58:16;;;;;;;9.20;1.73;;;7.00;99.90;;;;;;5134923;28;20078;-57
2022/12/26 13:00:50;;;;;;;13.50;1.70;;;7.00;99.90;;;;;;5115798;28;20047;-57
2022/12/26 13:03:34;;;;;;;8.52;1.42;;;7.00;99.90;;;;;;5134667;28;20732;-58
2022/12/26 13:06:11;;;;;;;13.50;2.05;;;7.00;99.90;;;;;;5115906;28;20107;-57
2022/12/26 13:08:44;;;;;;;9.77;2.10;;;6.90;99.90;;;;;;5134687;28;20184;-57
2022/12/26 13:11:18;;;;;;;7.65;1.65;;;6.90;99.90;;;;;;5135252;28;20054;-57
2022/12/26 13:14:18;;;;;;;11.68;2.17;;;6.90;99.90;;;;;;5119414;27;20039;-57
2022/12/26 13:16:59;;;;;;;11.48;2.10;;;6.90;99.90;;;;;;5115825;28;20043;-57
2022/12/26 13:19:30;;;;;;;12.82;1.67;;;7.00;99.90;;;;;;5134451;28;20049;-58
2022/12/26 13:22:05;;;;;;;17.38;3.22;;;7.20;99.90;;;;;;5134196;28;20036;-57
2022/12/26 13:24:49;;;;;;;8.63;1.80;;;7.20;99.90;;;;;;5134228;28;20043;-57
2022/12/26 13:27:28;;;;;;;9.43;2.20;;;7.20;99.90;;;;;;5133627;28;20187;-58
2022/12/26 13:29:54;;;;;;;8.50;1.75;;;7.20;99.90;;;;;;5115426;28;20131;-58
2022/12/26 13:32:25;;;;;;;11.40;2.03;;;7.10;99.90;;;;;;5134536;28;20066;-57
2022/12/26 13:34:53;;;;;;;7.75;2.00;;;6.90;99.90;;;;;;5133925;28;20346;-58
2022/12/26 13:37:37;;;;;;;11.85;1.63;;;6.90;99.90;;;;;;5134257;28;20039;-57
2022/12/26 13:40:10;;;;;;;13.02;2.22;;;6.70;99.90;;;;;;5133434;28;20047;-58
2022/12/26 13:45:42;;;;;;;9.32;1.95;;;6.60;99.90;;;;;;5134385;28;20066;-57
2022/12/26 13:48:17;;;;;;;7.35;1.20;;;6.60;99.90;;;;;;5133603;28;20045;-58
2022/12/26 13:50:49;;;;;;;8.98;1.67;;;6.50;99.90;;;;;;5134201;28;20428;-60
2022/12/26 13:53:24;;;;;;;9.57;1.88;;;6.60;99.90;;;;;;5134083;28;20035;-58
2022/12/26 13:55:54;;;;;;;10.65;1.70;;;6.70;99.90;;;;;;5145916;27;20057;-58
2022/12/26 13:58:38;;;;;;;12.65;1.70;;;6.70;99.90;;;;;;5157769;27;20054;-58
2022/12/26 14:01:26;;;;;;;7.47;2.22;;;6.80;99.90;;;;;;5157635;27;20503;-56
2022/12/26 14:04:26;;;;;;;10.18;1.85;;;6.80;99.90;;;;;;5159092;27;20102;-58
2022/12/26 14:07:29;;;;;;;8.55;1.65;;;6.80;99.90;;;;;;5158935;27;20034;-57
2022/12/26 14:10:11;;;;;;;13.65;2.38;;;6.80;99.90;;;;;;5157878;27;20049;-58
2022/12/26 14:12:39;;;;;;;8.20;1.38;;;6.90;99.90;;;;;;5161399;27;20042;-58
2022/12/26 14:15:14;;;;;;;13.88;1.42;;;6.80;99.90;;;;;;5151877;27;20047;-58
2022/12/26 14:18:10;;;;;;;12.45;1.83;;;6.80;99.90;;;;;;5149081;27;20075;-58
2022/12/26 14:20:55;;;;;;;9.57;1.75;;;6.70;99.90;;;;;;5158917;27;20050;-58
2022/12/26 14:24:03;;;;;;;10.18;1.42;;;6.70;99.90;;;;;;5159618;27;20046;-56
2022/12/26 14:26:53;;;;;;;10.75;2.15;;;6.50;99.90;;;;;;5056124;28;20056;-58
2022/12/26 14:29:25;;;;;;;13.90;1.83;;;6.40;99.90;;;;;;5141246;27;20050;-57
2022/12/26 14:32:33;;;;;;;7.13;1.83;;;6.30;99.90;;;;;;5140675;27;20042;-58
2022/12/26 14:35:32;;;;;;;11.65;2.47;;;6.20;99.90;;;;;;5141105;27;20074;-58
2022/12/26 14:38:21;;;;;;;9.52;1.95;;;6.10;99.90;;;;;;5140875;27;20058;-58
2022/12/26 14:40:57;;;;;;;14.60;1.73;;;6.10;99.90;;;;;;5147232;27;20046;-57
2022/12/26 14:43:30;;;;;;;12.40;1.70;;;6.10;99.90;;;;;;5153118;27;20047;-58
2022/12/26 14:45:56;;;;;;;10.13;2.33;;;6.10;99.90;;;;;;5140381;27;20035;-58
2022/12/26 14:48:22;;;;;;;13.45;1.75;;;6.00;99.90;;;;;;5142047;27;20058;-58
2022/12/26 14:50:53;;;;;;;5.20;1.30;;;6.10;99.90;;;;;;5159411;27;20030;-58
2022/12/26 14:53:22;;;;;;;13.73;2.25;;;6.10;99.90;;;;;;5145111;27;20091;-57
2022/12/26 14:55:55;;;;;;;11.68;1.80;;;6.10;99.90;;;;;;5147930;27;20066;-58
2022/12/26 14:58:30;;;;;;;9.60;1.52;;;6.00;99.90;;;;;;5140375;27;20060;-58
2022/12/26 15:01:19;;;;;;;14.38;2.35;;;6.00;99.90;;;;;;5139318;27;20043;-58
2022/12/26 15:04:21;;;;;;;9.80;1.75;;;5.90;99.90;;;;;;5135218;27;20046;-57
2022/12/26 15:06:55;;;;;;;9.30;1.70;;;5.90;99.90;;;;;;5144275;27;20055;-57
2022/12/26 15:09:32;;;;;;;10.38;1.98;;;5.80;99.90;;;;;;5148470;27;20245;-58
2022/12/26 15:12:16;;;;;;;14.02;2.10;;;5.80;99.90;;;;;;5119043;27;20050;-58
2022/12/26 15:14:57;;;;;;;12.30;1.65;;;5.80;99.90;;;;;;5119544;27;20098;-58
2022/12/26 15:17:48;;;;;;;14.25;2.03;;;5.70;99.90;;;;;;5134040;27;20047;-58
2022/12/26 15:20:43;;;;;;;9.88;2.85;;;5.60;99.90;;;;;;5134030;27;20047;-57
2022/12/26 15:23:27;;;;;;;12.25;1.88;;;5.60;99.90;;;;;;5141418;27;20106;-57
2022/12/26 15:26:17;;;;;;;11.52;2.03;;;5.50;99.90;;;;;;5150620;27;20086;-58
2022/12/26 15:28:57;;;;;;;10.70;2.30;;;5.50;99.90;;;;;;5149570;27;20071;-58
2022/12/26 15:31:50;;;;;;;9.10;1.95;;;5.40;99.90;;;;;;5152217;27;20072;-58